createdAt,value
2023-04-13T00:01:40.624Z,0.63
2023-04-13T00:04:07.277Z,0.60
2023-04-13T00:06:33.851Z,0.80
2023-04-13T00:09:00.922Z,0.70
2023-04-13T00:11:28.121Z,0.90
2023-04-13T00:13:55.103Z,0.90
2023-04-13T00:16:22.219Z,0.87
2023-04-13T00:18:50.363Z,1.03
2023-04-13T00:21:16.971Z,0.73
2023-04-13T00:23:44.570Z,0.80
2023-04-13T00:26:11.261Z,0.60
2023-04-13T00:28:37.870Z,0.67
2023-04-13T00:31:04.748Z,0.50
2023-04-13T00:33:31.413Z,1.00
2023-04-13T00:35:58.069Z,0.50
2023-04-13T00:38:27.202Z,0.80
2023-04-13T00:40:54.959Z,0.60
2023-04-13T00:45:53.530Z,0.87
2023-04-13T00:53:24.213Z,0.57
2023-04-13T00:55:52.568Z,0.60
2023-04-13T00:58:19.141Z,0.53
2023-04-13T01:00:45.771Z,0.53
2023-04-13T01:03:13.145Z,0.70
2023-04-13T01:09:11.223Z,1.30
2023-04-13T01:11:56.397Z,0.60
2023-04-13T01:15:05.312Z,0.60
2023-04-13T01:17:36.143Z,0.70
2023-04-13T01:20:16.396Z,0.80
2023-04-13T01:22:51.374Z,1.10
2023-04-13T01:25:27.332Z,0.50
2023-04-13T01:28:09.046Z,0.60
2023-04-13T01:30:37.614Z,0.53
2023-04-13T01:33:05.516Z,0.60
2023-04-13T01:35:32.723Z,0.57
2023-04-13T01:37:59.670Z,0.70
2023-04-13T01:40:28.707Z,0.57
2023-04-13T01:42:56.355Z,0.60
2023-04-13T01:45:26.351Z,0.90
2023-04-13T01:51:16.804Z,0.40
2023-04-13T01:53:48.503Z,0.60
2023-04-13T01:56:19.143Z,0.60
2023-04-13T01:58:53.376Z,0.50
2023-04-13T02:01:20.016Z,0.50
2023-04-13T02:03:46.785Z,0.47
2023-04-13T02:06:13.790Z,0.63
2023-04-13T02:08:41.849Z,0.90
2023-04-13T02:11:10.054Z,0.73
2023-04-13T02:13:36.572Z,0.50
2023-04-13T02:16:03.411Z,0.57
2023-04-13T02:18:30.655Z,0.77
2023-04-13T02:21:13.241Z,0.93
2023-04-13T02:23:41.217Z,0.70
2023-04-13T02:26:08.769Z,0.90
2023-04-13T02:28:35.884Z,0.47
2023-04-13T02:31:05.769Z,0.83
2023-04-13T02:33:36.250Z,0.60
2023-04-13T02:36:04.088Z,0.50
2023-04-13T02:38:31.843Z,0.70
2023-04-13T02:41:00.057Z,0.70
2023-04-13T02:43:26.716Z,0.60
2023-04-13T02:45:53.552Z,0.90
2023-04-13T02:48:20.430Z,0.73
2023-04-13T02:50:47.304Z,0.70
2023-04-13T03:05:58.525Z,0.50
2023-04-13T03:08:26.240Z,0.50
2023-04-13T03:10:54.327Z,0.73
2023-04-13T03:13:21.414Z,0.60
2023-04-13T03:18:19.586Z,0.60
2023-04-13T03:20:46.416Z,0.50
2023-04-13T03:23:13.090Z,0.50
2023-04-13T03:25:39.625Z,0.60
2023-04-13T03:28:06.197Z,0.50
2023-04-13T03:30:32.789Z,0.70
2023-04-13T03:32:59.401Z,0.50
2023-04-13T03:35:26.038Z,0.80
2023-04-13T03:37:52.708Z,0.40
2023-04-13T03:50:25.641Z,0.50
2023-04-13T03:52:52.179Z,0.60
2023-04-13T03:57:50.492Z,0.60
2023-04-13T04:02:49.824Z,0.80
2023-04-13T04:12:51.720Z,0.70
2023-04-13T04:15:18.344Z,0.50
2023-04-13T04:17:44.914Z,0.63
2023-04-13T04:20:11.771Z,0.50
2023-04-13T04:25:09.976Z,0.60
2023-04-13T04:30:10.597Z,0.33
2023-04-13T04:35:11.992Z,0.90
2023-04-13T04:37:38.809Z,0.50
2023-04-13T04:40:12.961Z,0.73
2023-04-13T04:42:39.603Z,0.40
2023-04-13T04:45:07.027Z,0.50
2023-04-13T04:47:41.871Z,0.50
2023-04-13T04:50:14.196Z,0.60
2023-04-13T04:52:41.581Z,0.63
2023-04-13T04:55:09.106Z,0.20
2023-04-13T04:57:36.196Z,0.50
2023-04-13T05:00:10.536Z,0.40
2023-04-13T05:02:37.286Z,0.60
2023-04-13T05:05:04.074Z,0.40
2023-04-13T05:07:30.842Z,0.50
2023-04-13T05:09:57.401Z,0.40
2023-04-13T05:12:23.945Z,0.60
2023-04-13T05:17:25.612Z,0.50
2023-04-13T05:19:52.448Z,1.10
2023-04-13T05:22:19.068Z,0.50
2023-04-13T05:24:45.702Z,0.50
2023-04-13T05:27:13.348Z,0.50
2023-04-13T05:29:40.222Z,0.43
2023-04-13T05:37:11.358Z,0.50
2023-04-13T05:39:38.883Z,0.60
2023-04-13T05:44:37.654Z,0.50
2023-04-13T06:02:14.706Z,0.60
2023-04-13T06:40:14.857Z,0.70
2023-04-13T06:42:42.456Z,0.40
2023-04-13T06:45:09.988Z,0.50
2023-04-13T06:47:40.565Z,0.37
2023-04-13T06:50:11.506Z,0.50
2023-04-13T06:57:41.802Z,0.57
2023-04-13T07:00:21.736Z,0.70
2023-04-13T07:13:01.171Z,0.70
2023-04-13T07:17:59.206Z,0.67
2023-04-13T07:20:25.814Z,0.50
2023-04-13T07:22:52.456Z,0.50
2023-04-13T07:25:19.077Z,0.63
2023-04-13T07:30:17.282Z,0.83
2023-04-13T07:37:51.402Z,0.90
2023-04-13T07:40:19.400Z,0.40
2023-04-13T07:47:54.543Z,0.60
2023-04-13T07:57:55.861Z,0.83
2023-04-13T08:00:22.867Z,0.50
2023-04-13T08:02:49.623Z,0.50
2023-04-13T08:05:16.711Z,0.90
2023-04-13T08:07:46.314Z,0.73
2023-04-13T08:10:13.220Z,0.60
2023-04-13T08:12:39.802Z,0.67
2023-04-13T08:15:07.491Z,0.50
2023-04-13T08:17:34.131Z,0.57
2023-04-13T08:20:00.697Z,0.77
2023-04-13T08:22:27.226Z,0.47
2023-04-13T08:24:54.558Z,0.77
2023-04-13T08:27:21.156Z,0.57
2023-04-13T08:29:47.746Z,0.90
2023-04-13T08:32:14.366Z,0.50
2023-04-13T08:34:42.018Z,0.80
2023-04-13T08:37:08.545Z,0.80
2023-04-13T08:39:35.102Z,1.10
2023-04-13T08:47:04.962Z,0.90
2023-04-13T08:49:32.671Z,1.30
2023-04-13T08:51:59.978Z,1.40
2023-04-13T08:54:29.558Z,2.17
2023-04-13T08:56:57.654Z,1.80
2023-04-13T08:59:27.768Z,1.43
2023-04-13T09:01:55.663Z,2.20
2023-04-13T09:04:25.149Z,1.70
2023-04-13T09:06:52.171Z,1.80
2023-04-13T09:09:21.198Z,2.00
2023-04-13T09:11:49.968Z,2.43
2023-04-13T09:14:21.948Z,1.60
2023-04-13T09:16:48.893Z,1.77
2023-04-13T09:21:50.679Z,1.70
2023-04-13T09:34:28.938Z,1.70
2023-04-13T09:36:58.114Z,1.53
2023-04-13T09:39:28.285Z,1.73
2023-04-13T09:41:55.652Z,2.10
2023-04-13T09:44:34.483Z,1.47
2023-04-13T09:47:05.999Z,1.83
2023-04-13T09:49:39.423Z,1.80
2023-04-13T09:52:08.208Z,1.83
2023-04-13T09:54:35.329Z,1.80
2023-04-13T09:57:04.631Z,1.80
2023-04-13T09:59:32.871Z,1.73
2023-04-13T10:02:00.006Z,1.50
2023-04-13T10:04:27.066Z,1.50
2023-04-13T10:09:26.484Z,1.40
2023-04-13T10:11:55.867Z,1.20
2023-04-13T10:17:26.417Z,1.80
2023-04-13T10:19:55.215Z,1.43
2023-04-13T10:22:23.848Z,1.20
2023-04-13T10:27:28.254Z,1.20
2023-04-13T10:29:55.115Z,1.30
2023-04-13T10:32:26.725Z,0.97
2023-04-13T10:34:54.513Z,1.80
2023-04-13T10:40:10.388Z,1.33
2023-04-13T10:42:51.750Z,1.10
2023-04-13T10:45:24.008Z,1.10
2023-04-13T10:47:51.390Z,1.40
2023-04-13T10:50:22.796Z,0.93
2023-04-13T10:53:07.429Z,0.73
2023-04-13T11:00:49.668Z,1.10
2023-04-13T11:03:17.856Z,1.07
2023-04-13T11:05:47.003Z,1.03
2023-04-13T11:08:20.680Z,0.90
2023-04-13T11:10:55.240Z,0.90
2023-04-13T11:13:22.337Z,0.80
2023-04-13T11:18:26.410Z,1.30
2023-04-13T11:31:13.425Z,0.93
2023-04-13T11:33:40.723Z,1.33
2023-04-13T11:38:41.924Z,0.80
2023-04-13T11:41:16.260Z,1.17
2023-04-13T11:43:45.855Z,1.03
2023-04-13T11:53:51.212Z,1.20
2023-04-13T11:56:18.178Z,1.27
2023-04-13T11:58:45.205Z,0.70
2023-04-13T12:01:20.217Z,1.20
2023-04-13T12:04:01.587Z,0.87
2023-04-13T12:06:35.371Z,1.47
2023-04-13T12:09:11.005Z,1.13
2023-04-13T12:11:42.718Z,1.00
2023-04-13T12:14:49.730Z,1.20
2023-04-13T12:19:46.245Z,0.90
2023-04-13T12:22:14.654Z,1.00
2023-04-13T12:24:42.771Z,1.07
2023-04-13T12:27:18.343Z,0.80
2023-04-13T12:29:45.993Z,0.87
2023-04-13T12:42:23.334Z,1.27
2023-04-13T12:44:49.922Z,1.20
2023-04-13T12:49:48.248Z,1.30
2023-04-13T12:52:14.807Z,1.23
2023-04-13T12:54:41.376Z,1.00
2023-04-13T12:57:08.478Z,1.50
2023-04-13T12:59:35.015Z,1.30
2023-04-13T13:02:01.709Z,1.10
2023-04-13T13:04:30.585Z,1.30
2023-04-13T13:06:57.200Z,1.20
2023-04-13T13:09:23.763Z,1.10
2023-04-13T13:11:50.759Z,1.33
2023-04-13T13:14:17.372Z,1.23
2023-04-13T13:16:44.098Z,0.90
2023-04-13T13:19:10.923Z,1.10
2023-04-13T13:21:37.546Z,1.30
2023-04-13T13:24:04.405Z,1.03
2023-04-13T13:26:41.718Z,1.00
2023-04-13T13:31:52.511Z,2.60
2023-04-13T13:34:19.389Z,1.93
2023-04-13T13:41:52.738Z,1.43
2023-04-13T13:44:19.333Z,1.97
2023-04-13T13:46:46.181Z,1.83
2023-04-13T13:49:12.763Z,1.40
2023-04-13T13:51:39.524Z,1.20
2023-04-13T13:54:06.145Z,1.87
2023-04-13T13:56:32.657Z,1.43
2023-04-13T14:01:31.306Z,1.20
2023-04-13T14:06:32.221Z,1.87
2023-04-13T14:08:59.035Z,1.37
2023-04-13T14:11:26.242Z,1.20
2023-04-13T14:13:55.642Z,1.03
2023-04-13T14:18:55.549Z,1.17
2023-04-13T14:21:23.007Z,1.43
2023-04-13T14:23:50.291Z,2.13
2023-04-13T14:26:17.373Z,1.40
2023-04-13T14:28:44.241Z,1.47
2023-04-13T14:31:11.077Z,1.50
2023-04-13T14:33:37.992Z,1.57
2023-04-13T14:36:04.756Z,1.47
2023-04-13T14:38:31.362Z,1.17
2023-04-13T14:40:57.889Z,1.60
2023-04-13T14:43:24.705Z,1.43
2023-04-13T14:45:55.059Z,1.00
2023-04-13T14:48:22.150Z,1.60
2023-04-13T14:50:48.855Z,1.27
2023-04-13T14:53:16.538Z,1.30
2023-04-13T14:55:43.224Z,1.17
2023-04-13T14:58:10.027Z,1.67
2023-04-13T15:00:40.029Z,1.67
2023-04-13T15:03:11.058Z,0.97
2023-04-13T15:05:41.582Z,1.40
2023-04-13T15:20:47.535Z,1.13
2023-04-13T15:23:16.320Z,1.30
2023-04-13T15:35:52.316Z,1.30
2023-04-13T15:45:53.302Z,1.40
2023-04-13T15:48:20.548Z,1.27
2023-04-13T15:50:47.092Z,1.37
2023-04-13T15:55:45.141Z,1.53
2023-04-13T16:03:17.454Z,1.30
2023-04-13T16:05:44.220Z,1.33
2023-04-13T16:18:30.010Z,1.43
2023-04-13T16:23:34.009Z,1.67
2023-04-13T16:26:02.452Z,1.53
2023-04-13T16:28:29.589Z,1.20
2023-04-13T16:30:56.290Z,1.30
2023-04-13T16:33:22.903Z,1.20
2023-04-13T16:35:49.470Z,1.27
2023-04-13T16:38:16.306Z,1.70
2023-04-13T16:40:42.872Z,1.60
2023-04-13T16:43:09.434Z,1.47
2023-04-13T16:45:36.783Z,1.50
2023-04-13T16:48:04.092Z,1.40
2023-04-13T16:50:32.304Z,1.63
2023-04-13T16:52:59.513Z,1.77
2023-04-13T16:55:28.363Z,2.37
2023-04-13T17:00:27.061Z,1.37
2023-04-13T17:02:53.823Z,1.40
2023-04-13T17:05:20.582Z,1.80
2023-04-13T17:07:48.079Z,1.73
2023-04-13T17:10:14.801Z,1.33
2023-04-13T17:12:41.728Z,1.47
2023-04-13T17:15:09.479Z,1.60
2023-04-13T17:17:38.002Z,1.70
2023-04-13T17:22:37.942Z,1.10
2023-04-13T17:27:36.712Z,1.50
2023-04-13T17:30:03.584Z,1.90
2023-04-13T17:32:30.240Z,1.73
2023-04-13T17:34:57.310Z,1.73
2023-04-13T17:37:24.211Z,2.37
2023-04-13T17:39:51.293Z,2.00
2023-04-13T17:42:18.390Z,2.13
2023-04-13T17:44:44.974Z,1.70
2023-04-13T17:47:11.618Z,1.97
2023-04-13T17:49:38.771Z,2.00
2023-04-13T17:52:05.390Z,2.33
2023-04-13T17:57:06.935Z,2.30
2023-04-13T17:59:33.792Z,3.03
2023-04-13T18:02:00.422Z,2.23
2023-04-13T18:04:27.373Z,2.23
2023-04-13T18:09:28.119Z,2.23
2023-04-13T18:14:26.428Z,2.57
2023-04-13T18:21:56.250Z,2.30
2023-04-13T18:24:22.895Z,2.27
2023-04-13T18:29:20.979Z,2.37
2023-04-13T18:31:47.608Z,2.30
2023-04-13T18:34:14.274Z,2.77
2023-04-13T18:36:41.995Z,2.20
2023-04-13T18:44:11.534Z,2.50
2023-04-13T18:46:38.121Z,2.67
2023-04-13T18:59:05.912Z,2.10
2023-04-13T19:11:54.011Z,2.83
2023-04-13T19:14:20.678Z,2.07
2023-04-13T19:16:47.631Z,1.73
2023-04-13T19:19:15.078Z,2.07
2023-04-13T19:21:41.880Z,2.07
2023-04-13T19:24:11.176Z,2.33
2023-04-13T19:26:37.780Z,2.13
2023-04-13T19:29:04.431Z,2.07
2023-04-13T19:34:08.184Z,2.17
2023-04-13T19:36:38.153Z,2.03
2023-04-13T19:39:07.404Z,2.50
2023-04-13T19:41:36.270Z,2.60
2023-04-13T19:44:03.879Z,2.27
2023-04-13T19:46:32.600Z,2.30
2023-04-13T19:49:02.363Z,1.97
2023-04-13T19:51:29.530Z,1.97
2023-04-13T19:56:34.116Z,1.93
2023-04-13T19:59:05.291Z,2.07
2023-04-13T20:01:33.538Z,2.00
2023-04-13T20:04:02.272Z,2.17
2023-04-13T20:06:29.291Z,1.80
2023-04-13T20:14:12.552Z,2.20
2023-04-13T20:16:39.281Z,1.97
2023-04-13T20:19:06.639Z,2.20
2023-04-13T20:21:34.297Z,1.97
2023-04-13T20:24:01.647Z,2.00
2023-04-13T20:26:30.228Z,2.33
2023-04-13T20:29:01.168Z,1.87
2023-04-13T20:31:32.409Z,1.87
2023-04-13T20:33:59.607Z,2.00
2023-04-13T20:36:26.925Z,2.40
2023-04-13T20:38:54.328Z,2.10
2023-04-13T20:41:21.608Z,1.90
2023-04-13T20:43:50.596Z,1.70
2023-04-13T20:46:17.237Z,1.73
2023-04-13T20:51:13.473Z,2.20
2023-04-13T20:53:40.066Z,2.03
2023-04-13T20:56:07.130Z,1.80
2023-04-13T20:58:33.859Z,1.80
2023-04-13T21:01:01.262Z,1.77
2023-04-13T21:03:30.700Z,2.17
2023-04-13T21:05:58.677Z,1.70
2023-04-13T21:10:57.408Z,1.73
2023-04-13T21:13:24.748Z,1.60
2023-04-13T21:20:54.613Z,1.80
2023-04-13T21:28:24.356Z,2.30
2023-04-13T21:30:50.886Z,1.90
2023-04-13T21:35:44.107Z,1.70
2023-04-13T21:38:10.689Z,2.00
2023-04-13T21:40:37.352Z,2.53
2023-04-13T21:45:35.476Z,2.13
2023-04-13T21:53:05.137Z,1.87
2023-04-13T21:55:31.654Z,1.93
2023-04-13T21:57:58.182Z,2.03
2023-04-13T22:00:25.190Z,1.90
2023-04-13T22:02:53.629Z,1.80
2023-04-13T22:05:20.667Z,1.70
2023-04-13T22:07:47.368Z,1.63
2023-04-13T22:10:13.975Z,2.37
2023-04-13T22:12:40.796Z,2.03
2023-04-13T22:17:39.526Z,2.17
2023-04-13T22:20:06.782Z,2.10
2023-04-13T22:22:33.397Z,1.87
2023-04-13T22:24:59.945Z,1.97
2023-04-13T22:27:27.248Z,2.00
2023-04-13T22:29:56.932Z,1.80
2023-04-13T22:32:23.761Z,1.87
2023-04-13T22:34:50.561Z,2.23
2023-04-13T22:37:17.671Z,2.20
2023-04-13T22:39:44.470Z,2.10
2023-04-13T22:42:11.491Z,1.93
2023-04-13T22:44:38.072Z,2.10
2023-04-13T22:47:04.741Z,2.30
2023-04-13T22:52:03.285Z,2.03
2023-04-13T22:54:29.974Z,2.50
2023-04-13T22:56:56.646Z,2.43
2023-04-13T23:04:26.226Z,2.10
2023-04-13T23:09:25.097Z,2.17
2023-04-13T23:14:23.623Z,1.87
2023-04-13T23:16:50.856Z,2.77
2023-04-13T23:19:21.563Z,1.80
2023-04-13T23:21:48.163Z,2.13
2023-04-13T23:29:19.729Z,2.50
2023-04-13T23:36:49.287Z,2.37
2023-04-13T23:44:20.207Z,2.60
2023-04-13T23:46:46.848Z,2.27
2023-04-13T23:49:13.394Z,2.33
2023-04-13T23:51:39.916Z,2.67
2023-04-13T23:54:06.948Z,2.53
2023-04-13T23:56:33.917Z,2.23
2023-04-13T23:59:00.931Z,2.63
